Time;durP1;ratioP1;P1;durP2;ratioP2;P2;SDS_P1;SDS_P2;PMS_P1;PMS_P2;Temp;Humidity;BMP_temperature;BMP_pressure;BME280_temperature;BME280_humidity;BME280_pressure;Samples;Min_cycle;Max_cycle;Signal;HPM_P1;HPM_P2
2022/04/02 00:01:52;;;;;;;;;;;12.40;99.90;;;;;;6244343;23;19970;-69
2022/04/02 00:04:18;;;;;;;;;;;12.50;99.90;;;;;;6243754;23;20305;-70
2022/04/02 00:06:44;;;;;;;;;;;12.50;99.90;;;;;;6243211;23;19904;-70
2022/04/02 00:09:09;;;;;;;;;;;12.40;99.90;;;;;;6243217;23;20244;-69
2022/04/02 00:11:35;;;;;;;;;;;12.40;99.90;;;;;;6243864;23;20257;-71
2022/04/02 00:14:01;;;;;;;;;;;12.30;99.90;;;;;;6243413;23;19903;-70
2022/04/02 00:16:27;;;;;;;;;;;12.30;99.90;;;;;;6243400;23;19997;-70
2022/04/02 00:18:53;;;;;;;;;;;12.30;99.90;;;;;;6241880;23;19916;-69
2022/04/02 00:21:19;;;;;;;;;;;12.20;99.90;;;;;;6243439;23;19957;-69
2022/04/02 00:23:46;;;;;;;;;;;12.20;99.90;;;;;;6243098;23;20240;-69
2022/04/02 00:26:21;;;;;;;;;;;12.10;99.90;;;;;;6243316;23;19915;-69
2022/04/02 00:28:48;;;;;;;;;;;12.10;99.90;;;;;;6243057;23;19903;-68
2022/04/02 00:31:15;;;;;;;;;;;12.00;99.90;;;;;;6243130;23;19916;-70
2022/04/02 00:33:42;;;;;;;;;;;12.00;99.90;;;;;;6243100;23;20293;-69
2022/04/02 00:36:08;;;;;;;;;;;12.00;99.90;;;;;;6243034;23;19989;-69
2022/04/02 00:38:34;;;;;;;;;;;11.80;99.90;;;;;;6243183;23;19941;-70
2022/04/02 00:41:00;;;;;;;;;;;11.60;99.90;;;;;;6243444;23;19907;-69
2022/04/02 00:43:30;;;;;;;;;;;11.60;99.90;;;;;;6243291;23;20014;-68
2022/04/02 00:45:57;;;;;;;;;;;11.60;99.90;;;;;;6243019;23;19911;-69
2022/04/02 00:48:23;;;;;;;;;;;11.60;99.90;;;;;;6244079;23;19939;-68
2022/04/02 00:50:53;;;;;;;;;;;11.60;99.90;;;;;;6244868;23;20253;-69
2022/04/02 00:53:20;;;;;;;;;;;11.60;99.90;;;;;;6244628;23;19904;-68
2022/04/02 00:55:47;;;;;;;;;;;11.60;99.90;;;;;;6244811;23;19904;-69
2022/04/02 00:58:13;;;;;;;;;;;11.50;99.90;;;;;;6244859;23;19903;-69
2022/04/02 01:00:41;;;;;;;;;;;11.50;99.90;;;;;;6244794;23;19904;-69
2022/04/02 01:03:08;;;;;;;;;;;11.50;99.90;;;;;;6245239;23;19908;-69
2022/04/02 01:05:37;;;;;;;;;;;11.50;99.90;;;;;;6244664;23;19904;-69
2022/04/02 01:08:06;;;;;;;;;;;11.50;99.90;;;;;;6244965;23;19904;-69
2022/04/02 01:10:32;;;;;;;;;;;11.60;99.90;;;;;;6244650;23;19904;-69
2022/04/02 01:12:59;;;;;;;;;;;11.60;99.90;;;;;;6217642;23;19910;-69
2022/04/02 01:15:25;;;;;;;;;;;11.60;99.90;;;;;;6244646;23;19915;-69
2022/04/02 01:17:52;;;;;;;;;;;11.60;99.90;;;;;;6244454;23;19912;-69
2022/04/02 01:20:18;;;;;;;;;;;11.60;99.90;;;;;;6244396;23;19927;-69
2022/04/02 01:22:45;;;;;;;;;;;11.50;99.90;;;;;;6245120;23;20309;-69
2022/04/02 01:25:13;;;;;;;;;;;11.50;99.90;;;;;;6244648;23;20348;-69
2022/04/02 01:27:41;;;;;;;;;;;11.50;99.90;;;;;;6244824;23;19935;-70
2022/04/02 01:30:08;;;;;;;;;;;11.50;99.90;;;;;;6244425;23;20269;-69
2022/04/02 01:32:33;;;;;;;;;;;11.50;99.90;;;;;;6244919;23;19910;-69
2022/04/02 01:34:59;;;;;;;;;;;11.50;99.90;;;;;;6244806;23;19904;-69
2022/04/02 01:37:25;;;;;;;;;;;11.40;99.90;;;;;;6244925;23;20199;-70
2022/04/02 01:39:51;;;;;;;;;;;11.40;99.90;;;;;;6244356;23;20308;-69
2022/04/02 01:42:24;;;;;;;;;;;11.40;99.90;;;;;;6244784;23;20265;-69
2022/04/02 01:44:51;;;;;;;;;;;11.40;99.90;;;;;;6217392;23;20305;-69
2022/04/02 01:47:19;;;;;;;;;;;11.40;99.90;;;;;;6244303;23;20316;-69
2022/04/02 01:49:48;;;;;;;;;;;11.40;99.90;;;;;;6244644;23;19915;-69
2022/04/02 01:52:18;;;;;;;;;;;11.40;99.90;;;;;;6244472;23;19918;-69
2022/04/02 01:54:44;;;;;;;;;;;11.50;99.90;;;;;;6244693;23;19904;-69
2022/04/02 01:57:10;;;;;;;;;;;11.50;99.90;;;;;;6217155;23;19910;-69
2022/04/02 01:59:36;;;;;;;;;;;11.50;99.90;;;;;;6243892;23;20026;-69
2022/04/02 02:02:01;;;;;;;;;;;11.50;99.90;;;;;;6244148;23;19955;-69
2022/04/02 02:04:28;;;;;;;;;;;11.50;99.90;;;;;;6244673;23;19912;-69
2022/04/02 02:06:54;;;;;;;;;;;11.60;99.90;;;;;;6244357;23;19983;-69
2022/04/02 02:09:20;;;;;;;;;;;11.60;99.90;;;;;;6244232;23;19903;-69
2022/04/02 02:11:46;;;;;;;;;;;11.60;99.90;;;;;;6244201;23;19908;-68
2022/04/02 02:14:12;;;;;;;;;;;11.60;99.90;;;;;;6244236;23;19942;-69
2022/04/02 02:16:38;;;;;;;;;;;11.60;99.90;;;;;;6244673;23;19935;-68
2022/04/02 02:19:04;;;;;;;;;;;11.60;99.90;;;;;;6244064;23;20209;-70
2022/04/02 02:21:30;;;;;;;;;;;11.60;99.90;;;;;;6244079;23;19918;-68
2022/04/02 02:23:59;;;;;;;;;;;11.60;99.90;;;;;;6244169;23;20250;-68
2022/04/02 02:26:24;;;;;;;;;;;11.60;99.90;;;;;;6243970;23;20363;-69
2022/04/02 02:28:50;;;;;;;;;;;11.60;99.90;;;;;;6244059;23;19990;-68
2022/04/02 02:31:16;;;;;;;;;;;11.60;99.90;;;;;;6244414;23;19931;-69
2022/04/02 02:36:26;;;;;;;;;;;11.60;99.90;;;;;;6244042;23;19911;-68
2022/04/02 02:38:52;;;;;;;;;;;11.60;99.90;;;;;;6243843;23;19904;-69
2022/04/02 02:41:18;;;;;;;;;;;11.60;99.90;;;;;;6244572;23;19912;-69
2022/04/02 02:43:44;;;;;;;;;;;11.60;99.90;;;;;;6216749;23;19907;-68
2022/04/02 02:46:12;;;;;;;;;;;11.60;99.90;;;;;;6243991;23;19946;-69
2022/04/02 02:48:38;;;;;;;;;;;11.60;99.90;;;;;;6243726;23;19982;-68
2022/04/02 02:51:04;;;;;;;;;;;11.60;99.90;;;;;;6243751;23;19983;-69
2022/04/02 02:53:29;;;;;;;;;;;11.60;99.90;;;;;;6244186;23;19982;-70
2022/04/02 02:55:55;;;;;;;;;;;11.70;99.90;;;;;;6243792;23;19914;-68
2022/04/02 02:58:21;;;;;;;;;;;11.60;99.90;;;;;;6243331;23;20247;-69
2022/04/02 03:00:47;;;;;;;;;;;11.60;99.90;;;;;;6243801;23;19995;-70
2022/04/02 03:03:13;;;;;;;;;;;11.60;99.90;;;;;;6243460;23;19908;-70
2022/04/02 03:05:39;;;;;;;;;;;11.60;99.90;;;;;;6243640;23;19978;-70
2022/04/02 03:08:05;;;;;;;;;;;11.60;99.90;;;;;;6216774;23;20280;-69
2022/04/02 03:10:31;;;;;;;;;;;11.60;99.90;;;;;;6244032;23;19907;-69
2022/04/02 03:12:58;;;;;;;;;;;11.60;99.90;;;;;;6244012;23;19911;-69
2022/04/02 03:15:24;;;;;;;;;;;11.60;99.90;;;;;;6244496;23;19926;-69
2022/04/02 03:17:51;;;;;;;;;;;11.60;99.90;;;;;;6244093;23;19911;-69
2022/04/02 03:20:17;;;;;;;;;;;11.60;99.90;;;;;;6245015;23;19903;-69
2022/04/02 03:22:45;;;;;;;;;;;11.50;99.90;;;;;;6243674;23;19938;-69
2022/04/02 03:25:12;;;;;;;;;;;11.50;99.90;;;;;;6244448;23;19919;-68
2022/04/02 03:27:39;;;;;;;;;;;11.60;99.90;;;;;;6244552;23;19911;-69
2022/04/02 03:30:05;;;;;;;;;;;11.50;99.90;;;;;;6244480;23;19978;-69
2022/04/02 03:32:31;;;;;;;;;;;11.50;99.90;;;;;;6245072;23;19989;-69
2022/04/02 03:34:57;;;;;;;;;;;11.40;99.90;;;;;;6218121;23;19908;-70
2022/04/02 03:37:24;;;;;;;;;;;11.30;99.90;;;;;;6245804;23;20006;-69
2022/04/02 03:39:50;;;;;;;;;;;11.20;99.90;;;;;;6245313;23;19908;-69
2022/04/02 03:42:16;;;;;;;;;;;11.10;99.90;;;;;;6245037;23;19911;-69
2022/04/02 03:44:42;;;;;;;;;;;11.00;99.90;;;;;;6245271;23;20272;-69
2022/04/02 03:47:08;;;;;;;;;;;11.00;99.90;;;;;;6245891;23;19979;-69
2022/04/02 03:49:35;;;;;;;;;;;11.00;99.90;;;;;;6245129;23;20038;-69
2022/04/02 03:52:01;;;;;;;;;;;11.00;99.90;;;;;;6245192;23;20339;-68
2022/04/02 03:54:27;;;;;;;;;;;10.80;99.90;;;;;;6245182;23;19907;-68
2022/04/02 03:56:53;;;;;;;;;;;10.80;99.90;;;;;;6245882;23;20193;-69
2022/04/02 03:59:22;;;;;;;;;;;10.80;99.90;;;;;;6245094;23;19904;-69
2022/04/02 04:01:48;;;;;;;;;;;10.80;99.90;;;;;;6245476;23;20297;-68
2022/04/02 04:04:14;;;;;;;;;;;10.80;99.90;;;;;;6245411;23;19940;-69
2022/04/02 04:06:39;;;;;;;;;;;10.80;99.90;;;;;;6245777;23;20216;-68
2022/04/02 04:09:07;;;;;;;;;;;10.70;99.90;;;;;;6245134;23;19908;-68
2022/04/02 04:11:33;;;;;;;;;;;10.70;99.90;;;;;;6245082;23;19904;-69
2022/04/02 04:13:59;;;;;;;;;;;10.70;99.90;;;;;;6245676;23;20269;-69
2022/04/02 04:16:25;;;;;;;;;;;10.70;99.90;;;;;;6245215;23;19995;-66
2022/04/02 04:18:51;;;;;;;;;;;10.80;99.90;;;;;;6245068;23;20237;-70
2022/04/02 04:21:24;;;;;;;;;;;10.80;99.90;;;;;;6246581;23;19908;-67
2022/04/02 04:23:51;;;;;;;;;;;10.90;99.90;;;;;;6248026;23;19963;-70
2022/04/02 04:26:17;;;;;;;;;;;11.00;99.90;;;;;;6248072;23;19903;-70
2022/04/02 04:28:42;;;;;;;;;;;11.10;99.90;;;;;;6248745;23;19903;-70
2022/04/02 04:32:00;;;;;;;;;;;11.20;99.90;;;;;;6248351;23;19957;-66
2022/04/02 04:34:35;;;;;;;;;;;11.20;99.90;;;;;;6096583;23;19905;-67
2022/04/02 04:37:01;;;;;;;;;;;11.30;99.90;;;;;;6096651;23;20312;-69
2022/04/02 04:39:26;;;;;;;;;;;11.30;99.90;;;;;;6096535;23;20322;-71
2022/04/02 04:41:52;;;;;;;;;;;11.40;99.90;;;;;;6096784;23;20018;-70
2022/04/02 04:44:20;;;;;;;;;;;11.40;99.90;;;;;;6096905;23;19921;-71
2022/04/02 04:46:48;;;;;;;;;;;11.60;99.90;;;;;;6096388;23;20319;-71
2022/04/02 04:49:14;;;;;;;;;;;11.50;99.90;;;;;;6096909;23;19988;-70
2022/04/02 04:51:40;;;;;;;;;;;11.50;99.90;;;;;;6096778;23;20247;-70
2022/04/02 04:54:06;;;;;;;;;;;11.50;99.90;;;;;;6096662;23;20236;-69
2022/04/02 04:56:32;;;;;;;;;;;11.60;99.90;;;;;;6096329;23;19916;-70
2022/04/02 04:58:58;;;;;;;;;;;11.60;99.90;;;;;;6096576;23;19913;-70
2022/04/02 05:01:24;;;;;;;;;;;11.60;99.90;;;;;;6096084;23;20243;-71
2022/04/02 05:03:50;;;;;;;;;;;11.60;99.90;;;;;;6096478;23;19953;-70
2022/04/02 05:06:15;;;;;;;;;;;11.60;99.90;;;;;;6096258;23;19957;-70
2022/04/02 05:08:41;;;;;;;;;;;11.60;99.90;;;;;;6110621;23;20228;-70
2022/04/02 05:11:10;;;;;;;;;;;11.60;99.90;;;;;;6246734;23;19922;-71
2022/04/02 05:13:35;;;;;;;;;;;11.50;99.90;;;;;;6247912;23;20039;-67
2022/04/02 05:16:01;;;;;;;;;;;11.50;99.90;;;;;;6247665;23;19924;-70
2022/04/02 05:18:27;;;;;;;;;;;11.50;99.90;;;;;;6247294;23;19923;-70
2022/04/02 05:20:53;;;;;;;;;;;11.60;99.90;;;;;;6247654;23;19911;-70
2022/04/02 05:23:19;;;;;;;;;;;11.70;99.90;;;;;;6247657;23;19907;-70
2022/04/02 05:25:45;;;;;;;;;;;11.70;99.90;;;;;;6247227;23;19903;-70
2022/04/02 05:28:11;;;;;;;;;;;11.80;99.90;;;;;;6246928;23;20034;-70
2022/04/02 05:30:39;;;;;;;;;;;11.80;99.90;;;;;;6247364;23;20224;-71
2022/04/02 05:33:06;;;;;;;;;;;11.90;99.90;;;;;;6246776;23;19908;-70
2022/04/02 05:35:31;;;;;;;;;;;11.90;99.90;;;;;;6246613;23;19904;-70
2022/04/02 05:37:57;;;;;;;;;;;11.90;99.90;;;;;;6246948;23;19903;-71
2022/04/02 05:40:24;;;;;;;;;;;12.20;99.90;;;;;;6247748;23;20269;-71
2022/04/02 05:42:50;;;;;;;;;;;12.90;99.90;;;;;;6246914;23;19918;-71
2022/04/02 05:45:16;;;;;;;;;;;13.80;99.90;;;;;;6247030;23;19986;-70
2022/04/02 05:47:46;;;;;;;;;;;14.10;99.90;;;;;;6247044;23;19903;-70
2022/04/02 05:50:12;;;;;;;;;;;13.80;99.90;;;;;;6246127;23;19904;-71
2022/04/02 05:52:39;;;;;;;;;;;13.80;99.90;;;;;;6246595;23;19903;-70
2022/04/02 05:55:05;;;;;;;;;;;13.70;99.90;;;;;;6245822;23;19957;-71
2022/04/02 05:57:31;;;;;;;;;;;13.60;99.90;;;;;;6246062;23;20344;-69
2022/04/02 05:59:57;;;;;;;;;;;13.20;99.90;;;;;;6245787;23;19903;-71
2022/04/02 06:02:23;;;;;;;;;;;13.20;99.90;;;;;;6219370;23;19961;-71
2022/04/02 06:04:49;;;;;;;;;;;13.20;99.90;;;;;;6245618;23;19982;-72
2022/04/02 06:07:14;;;;;;;;;;;12.80;99.90;;;;;;6218347;23;20308;-72
2022/04/02 06:09:40;;;;;;;;;;;12.60;99.90;;;;;;6244316;23;19939;-71
2022/04/02 06:12:06;;;;;;;;;;;12.20;99.90;;;;;;6245287;23;20404;-70
2022/04/02 06:14:32;;;;;;;;;;;12.40;99.90;;;;;;6245638;23;20003;-71
2022/04/02 06:16:58;;;;;;;;;;;13.90;99.90;;;;;;6245223;23;19903;-70
2022/04/02 06:19:24;;;;;;;;;;;16.00;99.90;;;;;;6245474;23;19938;-71
2022/04/02 06:21:49;;;;;;;;;;;18.10;99.90;;;;;;6245578;23;19907;-71
2022/04/02 06:24:15;;;;;;;;;;;19.40;98.10;;;;;;6246811;23;19907;-72
2022/04/02 06:26:41;;;;;;;;;;;21.10;96.20;;;;;;6246175;23;19911;-71
2022/04/02 06:29:07;;;;;;;;;;;22.30;92.30;;;;;;6245719;23;19958;-70
2022/04/02 06:31:33;;;;;;;;;;;24.10;90.40;;;;;;6245539;23;19904;-72
2022/04/02 06:33:58;;;;;;;;;;;24.50;85.80;;;;;;6245712;23;19903;-71
2022/04/02 06:36:24;;;;;;;;;;;25.50;81.90;;;;;;6245741;23;19911;-72
2022/04/02 06:38:50;;;;;;;;;;;26.20;78.00;;;;;;6245976;23;19979;-71
2022/04/02 06:41:16;;;;;;;;;;;24.80;78.60;;;;;;6245177;23;20273;-70
2022/04/02 06:43:42;;;;;;;;;;;24.20;80.90;;;;;;6246086;23;19958;-71
2022/04/02 06:46:10;;;;;;;;;;;23.60;80.70;;;;;;6245386;23;19975;-72
2022/04/02 06:48:36;;;;;;;;;;;21.90;82.20;;;;;;6245770;23;19908;-69
2022/04/02 06:51:02;;;;;;;;;;;20.60;86.40;;;;;;6246051;23;19926;-71
2022/04/02 06:53:28;;;;;;;;;;;20.00;88.40;;;;;;6245595;23;19908;-71
2022/04/02 06:55:54;;;;;;;;;;;20.00;90.10;;;;;;6246223;23;19903;-71
2022/04/02 06:58:27;;;;;;;;;;;20.60;88.90;;;;;;6245676;23;19986;-71
2022/04/02 07:00:52;;;;;;;;;;;22.30;87.50;;;;;;6245220;23;20253;-72
2022/04/02 07:03:18;;;;;;;;;;;23.90;80.90;;;;;;6245378;23;19930;-72
2022/04/02 07:05:44;;;;;;;;;;;25.90;77.60;;;;;;6245280;23;19904;-71
2022/04/02 07:08:10;;;;;;;;;;;27.40;76.50;;;;;;6245802;23;19914;-69
2022/04/02 07:10:36;;;;;;;;;;;28.30;72.80;;;;;;6245619;23;20336;-70
2022/04/02 07:13:04;;;;;;;;;;;29.70;70.90;;;;;;6245914;23;19904;-71
2022/04/02 07:15:30;;;;;;;;;;;30.30;69.50;;;;;;6245603;23;19908;-71
2022/04/02 07:17:55;;;;;;;;;;;30.40;67.10;;;;;;6245671;23;19920;-70
2022/04/02 07:20:22;;;;;;;;;;;30.10;67.00;;;;;;6244904;23;20305;-71
2022/04/02 07:22:49;;;;;;;;;;;29.60;64.50;;;;;;6245251;23;20261;-71
2022/04/02 07:25:16;;;;;;;;;;;28.70;65.10;;;;;;6244556;23;20005;-70
2022/04/02 07:27:43;;;;;;;;;;;28.10;68.00;;;;;;6244332;23;19904;-70
2022/04/02 07:30:10;;;;;;;;;;;26.60;69.50;;;;;;6245107;23;20272;-69
2022/04/02 07:32:36;;;;;;;;;;;24.50;71.60;;;;;;6245385;23;19907;-71
2022/04/02 07:35:02;;;;;;;;;;;23.10;76.10;;;;;;6218002;23;19914;-70
2022/04/02 07:37:46;;;;;;;;;;;21.80;80.60;;;;;;6245221;23;19994;-70
2022/04/02 07:40:19;;;;;;;;;;;20.70;84.40;;;;;;6245047;23;19979;-70
2022/04/02 07:43:04;;;;;;;;;;;19.60;89.00;;;;;;6245387;23;19911;-71
2022/04/02 07:45:38;;;;;;;;;;;18.30;91.50;;;;;;6245443;23;19939;-70
2022/04/02 07:48:06;;;;;;;;;;;17.60;93.50;;;;;;6217445;23;19939;-69
2022/04/02 07:50:33;;;;;;;;;;;16.70;94.60;;;;;;6244658;23;20021;-70
2022/04/02 07:52:59;;;;;;;;;;;16.20;96.20;;;;;;6244453;23;19962;-71
2022/04/02 07:55:28;;;;;;;;;;;15.90;97.60;;;;;;6244497;23;19908;-70
2022/04/02 07:57:57;;;;;;;;;;;15.50;97.70;;;;;;6218134;23;19904;-70
2022/04/02 08:00:26;;;;;;;;;;;15.50;98.90;;;;;;6246417;23;19904;-71
2022/04/02 08:02:51;;;;;;;;;;;15.30;99.80;;;;;;6246948;23;19998;-70
2022/04/02 08:05:19;;;;;;;;;;;15.20;99.70;;;;;;6245601;23;20030;-71
2022/04/02 08:07:55;;;;;;;;;;;14.90;99.90;;;;;;6246653;23;19959;-71
2022/04/02 08:10:23;;;;;;;;;;;14.50;99.90;;;;;;6246801;23;19990;-71
2022/04/02 08:12:49;;;;;;;;;;;14.20;99.90;;;;;;6246354;23;19982;-71
2022/04/02 08:15:19;;;;;;;;;;;14.20;99.90;;;;;;6246484;23;20242;-71
2022/04/02 08:17:46;;;;;;;;;;;14.30;99.90;;;;;;6246532;23;19958;-70
2022/04/02 08:20:12;;;;;;;;;;;14.50;99.90;;;;;;6247028;23;19975;-69
2022/04/02 08:22:38;;;;;;;;;;;14.60;99.90;;;;;;6246987;23;19919;-70
2022/04/02 08:25:04;;;;;;;;;;;14.90;99.90;;;;;;6247642;23;19904;-69
2022/04/02 08:27:37;;;;;;;;;;;15.40;99.90;;;;;;6246238;23;20306;-70
2022/04/02 08:30:10;;;;;;;;;;;15.80;99.90;;;;;;6247271;23;19991;-71
2022/04/02 08:32:55;;;;;;;;;;;15.40;99.90;;;;;;6246834;23;19911;-71
2022/04/02 08:35:27;;;;;;;;;;;15.70;99.90;;;;;;6246942;23;19904;-70
2022/04/02 08:38:12;;;;;;;;;;;15.80;99.90;;;;;;6246785;23;19990;-71
2022/04/02 08:41:12;;;;;;;;;;;16.10;99.90;;;;;;6219695;23;20317;-72
2022/04/02 08:43:56;;;;;;;;;;;16.60;99.20;;;;;;6246469;23;19916;-69
2022/04/02 08:46:40;;;;;;;;;;;16.90;99.70;;;;;;6247268;23;19974;-70
2022/04/02 08:49:15;;;;;;;;;;;16.50;98.20;;;;;;6246220;23;19910;-70
2022/04/02 08:51:42;;;;;;;;;;;16.70;98.60;;;;;;6244050;23;19908;-71
2022/04/02 08:54:27;;;;;;;;;;;17.10;98.10;;;;;;6245846;23;19911;-70
2022/04/02 08:56:59;;;;;;;;;;;17.40;98.00;;;;;;6219217;23;19903;-70
2022/04/02 08:59:37;;;;;;;;;;;17.10;96.80;;;;;;6246905;23;19911;-70
2022/04/02 09:02:21;;;;;;;;;;;16.10;98.10;;;;;;6246052;23;20348;-70
2022/04/02 09:05:06;;;;;;;;;;;15.70;99.50;;;;;;6246288;23;19911;-70
2022/04/02 09:07:32;;;;;;;;;;;15.80;99.90;;;;;;6246288;23;19904;-70
2022/04/02 09:10:06;;;;;;;;;;;16.00;99.90;;;;;;6219251;23;19992;-70
2022/04/02 09:12:51;;;;;;;;;;;16.00;99.30;;;;;;6246668;23;20305;-71
2022/04/02 09:15:29;;;;;;;;;;;15.90;99.10;;;;;;6246643;23;19911;-70
2022/04/02 09:18:02;;;;;;;;;;;16.10;99.30;;;;;;6246513;23;20293;-70
2022/04/02 09:20:38;;;;;;;;;;;16.10;99.00;;;;;;6246331;23;19914;-71
2022/04/02 09:23:06;;;;;;;;;;;16.30;98.90;;;;;;6246265;23;19990;-71
2022/04/02 09:25:41;;;;;;;;;;;16.50;96.60;;;;;;6219266;23;20317;-71
2022/04/02 09:28:09;;;;;;;;;;;15.80;94.50;;;;;;6246159;23;19910;-71
2022/04/02 09:30:54;;;;;;;;;;;15.70;94.30;;;;;;6246295;23;19904;-71
2022/04/02 09:33:31;;;;;;;;;;;15.70;94.90;;;;;;6246061;23;19927;-71
2022/04/02 09:36:18;;;;;;;;;;;15.40;94.70;;;;;;6246352;23;19908;-70
2022/04/02 09:38:56;;;;;;;;;;;15.70;95.30;;;;;;6246452;23;19935;-71
2022/04/02 09:41:51;;;;;;;;;;;15.90;95.30;;;;;;6245466;23;20240;-71
2022/04/02 09:47:25;;;;;;;;;;;15.70;95.60;;;;;;6094346;23;19992;-71
2022/04/02 09:50:10;;;;;;;;;;;15.90;95.50;;;;;;6094744;23;19988;-71
2022/04/02 09:52:46;;;;;;;;;;;15.80;95.50;;;;;;6093444;23;19950;-69
2022/04/02 09:55:13;;;;;;;;;;;15.50;96.60;;;;;;6093434;23;19967;-71
2022/04/02 09:57:45;;;;;;;;;;;15.80;96.70;;;;;;6093067;23;20255;-70
2022/04/02 10:00:17;;;;;;;;;;;16.10;96.30;;;;;;6093588;23;20029;-71
2022/04/02 10:02:57;;;;;;;;;;;16.00;96.10;;;;;;6093009;23;19965;-71
2022/04/02 10:05:27;;;;;;;;;;;16.10;96.30;;;;;;6093196;23;19905;-70
2022/04/02 10:07:55;;;;;;;;;;;16.10;95.90;;;;;;6093122;23;19960;-71
2022/04/02 10:10:25;;;;;;;;;;;15.80;96.30;;;;;;6093836;23;19950;-71
2022/04/02 10:12:53;;;;;;;;;;;15.80;96.70;;;;;;6093921;23;19905;-71
2022/04/02 10:15:19;;;;;;;;;;;15.90;95.90;;;;;;6093210;23;19909;-70
2022/04/02 10:17:50;;;;;;;;;;;16.20;95.70;;;;;;6092676;23;19924;-70
2022/04/02 10:20:18;;;;;;;;;;;16.40;94.90;;;;;;6142899;23;19980;-70
2022/04/02 10:22:45;;;;;;;;;;;16.60;94.40;;;;;;6244442;23;20215;-72
2022/04/02 10:25:14;;;;;;;;;;;16.90;93.50;;;;;;6245266;23;19979;-71
2022/04/02 10:27:41;;;;;;;;;;;17.10;93.70;;;;;;6217464;23;19939;-71
2022/04/02 10:30:11;;;;;;;;;;;17.10;93.30;;;;;;6245016;23;19903;-70
2022/04/02 10:32:52;;;;;;;;;;;17.10;92.50;;;;;;6244448;23;20021;-69
2022/04/02 10:35:18;;;;;;;;;;;16.70;93.50;;;;;;6244516;23;19973;-69
2022/04/02 10:38:07;;;;;;;;;;;16.90;93.20;;;;;;6244658;23;19935;-71
2022/04/02 10:40:36;;;;;;;;;;;17.10;93.00;;;;;;6244936;23;19975;-70
2022/04/02 10:43:04;;;;;;;;;;;17.30;93.10;;;;;;6244216;23;19958;-70
2022/04/02 10:45:32;;;;;;;;;;;17.30;92.80;;;;;;6244728;23;19926;-70
2022/04/02 10:48:06;;;;;;;;;;;17.50;92.40;;;;;;6245019;23;19903;-69
2022/04/02 10:50:32;;;;;;;;;;;17.50;92.30;;;;;;6244502;23;19904;-70
2022/04/02 10:53:00;;;;;;;;;;;17.20;92.60;;;;;;6245175;23;19983;-71
2022/04/02 10:55:27;;;;;;;;;;;16.80;93.50;;;;;;6245038;23;19904;-71
2022/04/02 11:00:57;;;;;;;;;;;16.70;93.90;;;;;;6244144;23;19963;-71
2022/04/02 11:03:36;;;;;;;;;;;16.40;93.60;;;;;;6244393;23;19911;-70
2022/04/02 11:06:02;;;;;;;;;;;16.20;94.30;;;;;;6245334;23;19941;-71
2022/04/02 11:08:31;;;;;;;;;;;16.20;94.80;;;;;;6244800;23;19903;-71
2022/04/02 11:11:21;;;;;;;;;;;16.10;94.70;;;;;;6244814;23;19954;-70
2022/04/02 11:13:51;;;;;;;;;;;16.30;94.70;;;;;;6244792;23;19904;-71
2022/04/02 11:16:23;;;;;;;;;;;16.30;95.10;;;;;;6244937;23;19915;-69
2022/04/02 11:21:47;;;;;;;;;;;16.70;95.00;;;;;;6245637;23;19994;-70
2022/04/02 11:24:17;;;;;;;;;;;17.00;94.30;;;;;;6245529;23;20019;-70
2022/04/02 11:26:44;;;;;;;;;;;17.10;94.10;;;;;;6245704;23;19911;-71
2022/04/02 11:29:12;;;;;;;;;;;17.10;94.40;;;;;;6245454;23;19910;-69
2022/04/02 11:31:40;;;;;;;;;;;17.20;93.70;;;;;;6245210;23;19974;-69
2022/04/02 11:34:08;;;;;;;;;;;17.00;94.30;;;;;;6245025;23;19903;-70
2022/04/02 11:36:57;;;;;;;;;;;16.90;94.50;;;;;;6245425;23;19911;-70
2022/04/02 11:39:30;;;;;;;;;;;16.60;94.70;;;;;;6245354;23;19904;-70
2022/04/02 11:42:00;;;;;;;;;;;16.60;95.20;;;;;;6246174;23;19919;-70
2022/04/02 11:44:34;;;;;;;;;;;16.50;95.10;;;;;;6245782;23;19904;-69
2022/04/02 11:47:01;;;;;;;;;;;16.20;95.30;;;;;;6246201;23;20003;-69
2022/04/02 11:49:28;;;;;;;;;;;16.50;96.10;;;;;;6218080;23;19994;-69
2022/04/02 11:52:04;;;;;;;;;;;16.70;96.30;;;;;;6244976;23;20240;-70
2022/04/02 11:54:31;;;;;;;;;;;16.80;96.00;;;;;;6245627;23;20013;-70
2022/04/02 11:57:07;;;;;;;;;;;16.70;95.60;;;;;;6244878;23;20383;-70
2022/04/02 11:59:37;;;;;;;;;;;16.70;96.50;;;;;;6245192;23;19904;-70
2022/04/02 12:02:03;;;;;;;;;;;17.00;96.40;;;;;;6245196;23;19919;-71
2022/04/02 12:04:29;;;;;;;;;;;17.10;98.00;;;;;;6245510;23;20340;-71
2022/04/02 12:07:03;;;;;;;;;;;17.10;96.10;;;;;;6245407;23;19904;-71
2022/04/02 12:09:29;;;;;;;;;;;16.90;94.80;;;;;;6246090;23;19926;-71
2022/04/02 12:12:03;;;;;;;;;;;17.00;94.60;;;;;;6245735;23;19904;-71
2022/04/02 12:14:28;;;;;;;;;;;17.00;94.40;;;;;;6245332;23;19911;-71
2022/04/02 12:17:05;;;;;;;;;;;16.70;93.00;;;;;;6245835;23;20291;-71
2022/04/02 12:19:53;;;;;;;;;;;16.50;92.20;;;;;;6245994;23;19916;-70
2022/04/02 12:22:27;;;;;;;;;;;16.70;93.00;;;;;;6226132;23;19955;-66
2022/04/02 12:24:57;;;;;;;;;;;16.40;94.50;;;;;;6245852;23;20371;-71
2022/04/02 12:27:24;;;;;;;;;;;16.60;94.80;;;;;;6246014;23;19980;-71
2022/04/02 12:29:51;;;;;;;;;;;16.70;94.10;;;;;;6246542;23;19929;-71
2022/04/02 12:32:35;;;;;;;;;;;17.00;93.90;;;;;;6246005;23;19908;-70
2022/04/02 12:35:09;;;;;;;;;;;17.20;92.40;;;;;;6246567;23;19927;-71
2022/04/02 12:37:44;;;;;;;;;;;17.40;92.50;;;;;;6246320;23;19911;-72
2022/04/02 12:40:14;;;;;;;;;;;17.50;92.20;;;;;;6246007;23;19904;-72
2022/04/02 12:42:41;;;;;;;;;;;17.30;92.10;;;;;;6245727;23;19912;-72
2022/04/02 12:45:08;;;;;;;;;;;17.30;92.20;;;;;;6247983;23;19990;-71
2022/04/02 12:47:36;;;;;;;;;;;17.00;91.50;;;;;;6247739;23;20293;-72
2022/04/02 12:50:14;;;;;;;;;;;16.70;92.60;;;;;;6248051;23;19903;-71
2022/04/02 12:52:44;;;;;;;;;;;16.60;93.10;;;;;;6247651;23;20240;-72
2022/04/02 12:55:16;;;;;;;;;;;16.60;93.00;;;;;;6248011;23;19903;-71
2022/04/02 12:57:54;;;;;;;;;;;16.50;93.10;;;;;;6247532;23;19903;-70
2022/04/02 13:00:29;;;;;;;;;;;16.60;93.50;;;;;;6248284;23;20277;-71
2022/04/02 13:02:56;;;;;;;;;;;16.90;93.40;;;;;;6247624;23;19912;-72
2022/04/02 13:05:24;;;;;;;;;;;17.00;92.70;;;;;;6247534;23;19904;-71
2022/04/02 13:07:59;;;;;;;;;;;17.40;92.80;;;;;;6247705;23;19907;-71
2022/04/02 13:10:27;;;;;;;;;;;17.70;91.90;;;;;;6248299;23;20021;-72
2022/04/02 13:12:53;;;;;;;;;;;17.70;91.70;;;;;;6247755;23;20336;-72
2022/04/02 13:15:21;;;;;;;;;;;17.60;92.20;;;;;;6247467;23;20251;-70
2022/04/02 13:20:38;;;;;;;;;;;17.20;91.50;;;;;;6247852;23;19911;-72
2022/04/02 13:23:07;;;;;;;;;;;16.70;91.80;;;;;;6247331;23;19951;-72
2022/04/02 13:25:39;;;;;;;;;;;16.40;92.50;;;;;;6248093;23;19949;-71
2022/04/02 13:28:05;;;;;;;;;;;16.20;92.90;;;;;;6247641;23;19903;-71
2022/04/02 13:30:32;;;;;;;;;;;15.80;94.00;;;;;;6247526;23;20319;-71
2022/04/02 13:33:25;;;;;;;;;;;15.70;95.30;;;;;;6247132;23;19958;-71
2022/04/02 13:35:54;;;;;;;;;;;15.40;96.40;;;;;;6190097;23;19907;-71
2022/04/02 13:38:30;;;;;;;;;;;15.00;99.00;;;;;;6247308;23;19907;-71
2022/04/02 13:40:57;;;;;;;;;;;14.80;99.90;;;;;;6247892;23;19934;-71
2022/04/02 13:43:30;;;;;;;;;;;14.80;99.90;;;;;;6246891;23;19911;-71
2022/04/02 13:45:57;;;;;;;;;;;14.70;99.90;;;;;;6247780;23;19904;-70
2022/04/02 13:48:25;;;;;;;;;;;14.60;99.90;;;;;;6246378;23;19927;-71
2022/04/02 13:51:05;;;;;;;;;;;14.70;99.90;;;;;;6246272;23;20309;-72
2022/04/02 13:53:38;;;;;;;;;;;14.50;99.90;;;;;;6246969;23;19927;-71
2022/04/02 13:56:08;;;;;;;;;;;14.50;99.90;;;;;;6245624;23;19903;-72
2022/04/02 13:58:38;;;;;;;;;;;14.50;99.90;;;;;;6246548;23;19904;-71
2022/04/02 14:01:07;;;;;;;;;;;14.80;99.90;;;;;;6246031;23;19903;-71
2022/04/02 14:03:33;;;;;;;;;;;15.20;99.90;;;;;;6245840;23;20309;-71
2022/04/02 14:05:59;;;;;;;;;;;15.40;99.00;;;;;;6246086;23;20009;-70
2022/04/02 14:08:32;;;;;;;;;;;15.70;99.30;;;;;;6246037;23;19903;-71
2022/04/02 14:11:00;;;;;;;;;;;15.80;98.50;;;;;;6245634;23;19903;-71
2022/04/02 14:13:28;;;;;;;;;;;15.60;97.20;;;;;;6246120;23;19942;-72
2022/04/02 14:15:55;;;;;;;;;;;15.70;98.10;;;;;;6245610;23;19903;-68
2022/04/02 14:18:25;;;;;;;;;;;15.70;97.40;;;;;;6245716;23;19916;-70
2022/04/02 14:20:53;;;;;;;;;;;15.60;98.10;;;;;;6218901;23;20332;-71
2022/04/02 14:23:29;;;;;;;;;;;15.60;97.10;;;;;;6245253;23;19912;-71
2022/04/02 14:26:01;;;;;;;;;;;15.30;95.90;;;;;;6245623;23;19904;-70
2022/04/02 14:28:41;;;;;;;;;;;15.30;96.20;;;;;;6244677;23;19979;-71
2022/04/02 14:31:12;;;;;;;;;;;15.20;94.40;;;;;;6245142;23;19904;-71
2022/04/02 14:33:56;;;;;;;;;;;15.00;95.00;;;;;;6246404;23;19966;-71
2022/04/02 14:36:40;;;;;;;;;;;15.00;95.20;;;;;;6246066;23;19910;-72
2022/04/02 14:39:35;;;;;;;;;;;14.90;96.00;;;;;;6245931;23;19992;-72
2022/04/02 14:42:10;;;;;;;;;;;14.90;96.80;;;;;;6245503;23;19934;-71
2022/04/02 14:44:36;;;;;;;;;;;15.00;97.30;;;;;;6218484;23;19930;-71